sensor_id;sensor_type;location;lat;lon;timestamp;P1;durP1;ratioP1;P2;durP2;ratioP2
801;SDS011;383;48.766;9.270;2023-02-01T00:01:54;23.52;;;13.50;;
801;SDS011;383;48.766;9.270;2023-02-01T00:04:21;42.70;;;17.60;;
801;SDS011;383;48.766;9.270;2023-02-01T00:06:48;16.10;;;7.65;;
801;SDS011;383;48.766;9.270;2023-02-01T00:09:15;32.53;;;15.52;;
801;SDS011;383;48.766;9.270;2023-02-01T00:11:42;22.52;;;10.20;;
801;SDS011;383;48.766;9.270;2023-02-01T00:14:11;20.63;;;11.48;;
801;SDS011;383;48.766;9.270;2023-02-01T00:16:38;15.75;;;7.25;;
801;SDS011;383;48.766;9.270;2023-02-01T00:19:06;11.65;;;5.75;;
801;SDS011;383;48.766;9.270;2023-02-01T00:21:34;10.45;;;6.25;;
801;SDS011;383;48.766;9.270;2023-02-01T00:24:01;18.17;;;9.32;;
801;SDS011;383;48.766;9.270;2023-02-01T00:26:30;10.35;;;6.93;;
801;SDS011;383;48.766;9.270;2023-02-01T00:28:58;11.98;;;5.85;;
801;SDS011;383;48.766;9.270;2023-02-01T00:31:26;13.27;;;4.40;;
801;SDS011;383;48.766;9.270;2023-02-01T00:33:53;13.35;;;5.32;;
801;SDS011;383;48.766;9.270;2023-02-01T00:36:20;15.35;;;7.32;;
801;SDS011;383;48.766;9.270;2023-02-01T00:38:47;20.20;;;8.65;;
801;SDS011;383;48.766;9.270;2023-02-01T00:41:15;7.63;;;4.55;;
801;SDS011;383;48.766;9.270;2023-02-01T00:43:42;8.18;;;4.70;;
801;SDS011;383;48.766;9.270;2023-02-01T00:46:10;11.15;;;5.05;;
801;SDS011;383;48.766;9.270;2023-02-01T00:48:38;6.35;;;3.75;;
801;SDS011;383;48.766;9.270;2023-02-01T00:51:06;5.93;;;3.67;;
801;SDS011;383;48.766;9.270;2023-02-01T00:53:34;10.70;;;4.53;;
801;SDS011;383;48.766;9.270;2023-02-01T00:56:01;9.02;;;3.97;;
801;SDS011;383;48.766;9.270;2023-02-01T00:58:29;5.75;;;3.97;;
801;SDS011;383;48.766;9.270;2023-02-01T01:01:03;15.00;;;8.07;;
801;SDS011;383;48.766;9.270;2023-02-01T01:03:30;7.35;;;3.65;;
801;SDS011;383;48.766;9.270;2023-02-01T01:06:01;6.32;;;4.20;;
801;SDS011;383;48.766;9.270;2023-02-01T01:08:29;5.82;;;3.33;;
801;SDS011;383;48.766;9.270;2023-02-01T01:10:56;8.40;;;3.75;;
801;SDS011;383;48.766;9.270;2023-02-01T01:13:23;13.07;;;4.47;;
801;SDS011;383;48.766;9.270;2023-02-01T01:15:50;10.90;;;4.75;;
801;SDS011;383;48.766;9.270;2023-02-01T01:18:17;7.72;;;4.60;;
801;SDS011;383;48.766;9.270;2023-02-01T01:20:44;6.18;;;3.42;;
801;SDS011;383;48.766;9.270;2023-02-01T01:23:12;11.50;;;3.55;;
801;SDS011;383;48.766;9.270;2023-02-01T01:25:40;8.38;;;3.92;;
801;SDS011;383;48.766;9.270;2023-02-01T01:28:07;5.32;;;3.38;;
801;SDS011;383;48.766;9.270;2023-02-01T01:30:34;5.93;;;3.33;;
801;SDS011;383;48.766;9.270;2023-02-01T01:33:01;5.93;;;3.22;;
801;SDS011;383;48.766;9.270;2023-02-01T01:35:29;4.80;;;3.28;;
801;SDS011;383;48.766;9.270;2023-02-01T01:37:56;6.32;;;3.92;;
801;SDS011;383;48.766;9.270;2023-02-01T01:40:25;5.13;;;2.83;;
801;SDS011;383;48.766;9.270;2023-02-01T01:42:52;4.28;;;3.15;;
801;SDS011;383;48.766;9.270;2023-02-01T01:45:21;6.25;;;3.75;;
801;SDS011;383;48.766;9.270;2023-02-01T01:47:50;6.75;;;3.40;;
801;SDS011;383;48.766;9.270;2023-02-01T01:50:20;4.85;;;2.63;;
801;SDS011;383;48.766;9.270;2023-02-01T01:52:49;9.35;;;2.65;;
801;SDS011;383;48.766;9.270;2023-02-01T01:55:18;6.50;;;3.13;;
801;SDS011;383;48.766;9.270;2023-02-01T01:57:50;5.95;;;3.40;;
801;SDS011;383;48.766;9.270;2023-02-01T02:00:18;3.78;;;2.95;;
801;SDS011;383;48.766;9.270;2023-02-01T02:02:46;3.45;;;2.50;;
801;SDS011;383;48.766;9.270;2023-02-01T02:05:14;5.53;;;2.92;;
801;SDS011;383;48.766;9.270;2023-02-01T02:07:43;7.25;;;3.60;;
801;SDS011;383;48.766;9.270;2023-02-01T02:10:12;3.95;;;2.80;;
801;SDS011;383;48.766;9.270;2023-02-01T02:12:41;5.47;;;3.40;;
801;SDS011;383;48.766;9.270;2023-02-01T02:15:12;6.00;;;3.50;;
801;SDS011;383;48.766;9.270;2023-02-01T02:17:41;4.25;;;2.75;;
801;SDS011;383;48.766;9.270;2023-02-01T02:23:36;3.28;;;2.15;;
801;SDS011;383;48.766;9.270;2023-02-01T02:32:36;5.85;;;3.72;;
801;SDS011;383;48.766;9.270;2023-02-01T02:35:27;4.07;;;3.08;;
801;SDS011;383;48.766;9.270;2023-02-01T02:38:02;4.63;;;2.80;;
801;SDS011;383;48.766;9.270;2023-02-01T02:40:41;9.27;;;4.15;;
801;SDS011;383;48.766;9.270;2023-02-01T02:43:14;5.05;;;2.97;;
801;SDS011;383;48.766;9.270;2023-02-01T02:46:06;6.25;;;3.70;;
801;SDS011;383;48.766;9.270;2023-02-01T02:49:00;3.83;;;2.83;;
801;SDS011;383;48.766;9.270;2023-02-01T02:51:34;4.82;;;3.10;;
801;SDS011;383;48.766;9.270;2023-02-01T02:54:23;12.25;;;3.50;;
801;SDS011;383;48.766;9.270;2023-02-01T02:57:11;12.60;;;4.20;;
801;SDS011;383;48.766;9.270;2023-02-01T02:59:59;4.90;;;3.40;;
801;SDS011;383;48.766;9.270;2023-02-01T03:02:45;6.60;;;3.10;;
801;SDS011;383;48.766;9.270;2023-02-01T03:05:33;4.30;;;2.92;;
801;SDS011;383;48.766;9.270;2023-02-01T03:08:03;4.40;;;2.80;;
801;SDS011;383;48.766;9.270;2023-02-01T03:10:38;7.78;;;3.30;;
801;SDS011;383;48.766;9.270;2023-02-01T03:13:10;5.18;;;3.25;;
801;SDS011;383;48.766;9.270;2023-02-01T03:15:42;7.03;;;3.50;;
801;SDS011;383;48.766;9.270;2023-02-01T03:18:16;8.13;;;3.70;;
801;SDS011;383;48.766;9.270;2023-02-01T03:20:47;4.43;;;2.90;;
801;SDS011;383;48.766;9.270;2023-02-01T03:23:17;5.93;;;3.08;;
801;SDS011;383;48.766;9.270;2023-02-01T03:25:47;5.47;;;3.45;;
801;SDS011;383;48.766;9.270;2023-02-01T03:28:15;5.25;;;3.53;;
801;SDS011;383;48.766;9.270;2023-02-01T03:30:46;5.97;;;3.25;;
801;SDS011;383;48.766;9.270;2023-02-01T03:33:15;6.82;;;3.63;;
801;SDS011;383;48.766;9.270;2023-02-01T03:35:52;4.72;;;3.65;;
801;SDS011;383;48.766;9.270;2023-02-01T03:38:27;9.35;;;3.92;;
801;SDS011;383;48.766;9.270;2023-02-01T03:40:59;4.32;;;3.15;;
801;SDS011;383;48.766;9.270;2023-02-01T03:43:33;5.35;;;3.60;;
801;SDS011;383;48.766;9.270;2023-02-01T03:46:07;4.43;;;3.17;;
801;SDS011;383;48.766;9.270;2023-02-01T03:48:38;5.55;;;2.95;;
801;SDS011;383;48.766;9.270;2023-02-01T03:51:05;6.22;;;3.42;;
801;SDS011;383;48.766;9.270;2023-02-01T03:53:34;7.32;;;3.55;;
801;SDS011;383;48.766;9.270;2023-02-01T03:56:03;4.38;;;3.30;;
801;SDS011;383;48.766;9.270;2023-02-01T03:58:30;5.32;;;4.07;;
801;SDS011;383;48.766;9.270;2023-02-01T04:00:58;7.75;;;3.60;;
801;SDS011;383;48.766;9.270;2023-02-01T04:03:26;5.65;;;3.33;;
801;SDS011;383;48.766;9.270;2023-02-01T04:05:53;4.72;;;3.00;;
801;SDS011;383;48.766;9.270;2023-02-01T04:08:21;18.33;;;5.60;;
801;SDS011;383;48.766;9.270;2023-02-01T04:10:49;9.68;;;3.28;;
801;SDS011;383;48.766;9.270;2023-02-01T04:13:16;5.55;;;3.58;;
801;SDS011;383;48.766;9.270;2023-02-01T04:15:43;11.73;;;3.15;;
801;SDS011;383;48.766;9.270;2023-02-01T04:18:10;7.18;;;3.70;;
801;SDS011;383;48.766;9.270;2023-02-01T04:20:37;11.55;;;4.15;;
801;SDS011;383;48.766;9.270;2023-02-01T04:23:04;8.18;;;3.25;;
801;SDS011;383;48.766;9.270;2023-02-01T04:25:31;6.57;;;3.33;;
801;SDS011;383;48.766;9.270;2023-02-01T04:27:59;9.20;;;4.00;;
801;SDS011;383;48.766;9.270;2023-02-01T04:30:25;5.15;;;3.15;;
801;SDS011;383;48.766;9.270;2023-02-01T04:32:52;7.93;;;3.42;;
801;SDS011;383;48.766;9.270;2023-02-01T04:35:19;5.00;;;3.45;;
801;SDS011;383;48.766;9.270;2023-02-01T04:37:45;5.95;;;3.60;;
801;SDS011;383;48.766;9.270;2023-02-01T04:40:12;6.82;;;4.03;;
801;SDS011;383;48.766;9.270;2023-02-01T04:42:39;8.70;;;4.75;;
801;SDS011;383;48.766;9.270;2023-02-01T04:45:07;5.88;;;3.88;;
801;SDS011;383;48.766;9.270;2023-02-01T04:47:34;4.15;;;3.20;;
801;SDS011;383;48.766;9.270;2023-02-01T04:50:01;4.75;;;3.50;;
801;SDS011;383;48.766;9.270;2023-02-01T04:52:28;5.28;;;3.40;;
801;SDS011;383;48.766;9.270;2023-02-01T04:54:55;6.28;;;3.97;;
801;SDS011;383;48.766;9.270;2023-02-01T04:57:22;6.78;;;3.78;;
801;SDS011;383;48.766;9.270;2023-02-01T04:59:49;9.73;;;4.22;;
801;SDS011;383;48.766;9.270;2023-02-01T05:02:17;9.15;;;3.90;;
801;SDS011;383;48.766;9.270;2023-02-01T05:04:44;14.52;;;4.78;;
801;SDS011;383;48.766;9.270;2023-02-01T05:07:10;6.10;;;3.65;;
801;SDS011;383;48.766;9.270;2023-02-01T05:09:37;5.18;;;3.53;;
801;SDS011;383;48.766;9.270;2023-02-01T05:12:04;5.75;;;3.53;;
801;SDS011;383;48.766;9.270;2023-02-01T05:14:49;8.13;;;4.68;;
801;SDS011;383;48.766;9.270;2023-02-01T05:17:15;4.90;;;3.72;;
801;SDS011;383;48.766;9.270;2023-02-01T05:19:43;7.03;;;3.50;;
801;SDS011;383;48.766;9.270;2023-02-01T05:22:10;6.47;;;3.90;;
801;SDS011;383;48.766;9.270;2023-02-01T05:24:37;5.80;;;3.20;;
801;SDS011;383;48.766;9.270;2023-02-01T05:27:03;8.60;;;4.25;;
801;SDS011;383;48.766;9.270;2023-02-01T05:29:30;7.25;;;4.78;;
801;SDS011;383;48.766;9.270;2023-02-01T05:31:57;4.82;;;3.30;;
801;SDS011;383;48.766;9.270;2023-02-01T05:34:25;8.18;;;4.45;;
801;SDS011;383;48.766;9.270;2023-02-01T05:36:52;10.80;;;4.10;;
801;SDS011;383;48.766;9.270;2023-02-01T05:39:18;7.38;;;3.90;;
801;SDS011;383;48.766;9.270;2023-02-01T05:41:47;8.00;;;4.65;;
801;SDS011;383;48.766;9.270;2023-02-01T05:44:14;7.53;;;3.70;;
801;SDS011;383;48.766;9.270;2023-02-01T05:47:11;8.43;;;4.20;;
801;SDS011;383;48.766;9.270;2023-02-01T05:49:39;5.07;;;2.88;;
801;SDS011;383;48.766;9.270;2023-02-01T05:52:06;5.97;;;3.47;;
801;SDS011;383;48.766;9.270;2023-02-01T05:54:33;4.78;;;3.03;;
801;SDS011;383;48.766;9.270;2023-02-01T05:56:59;4.50;;;3.00;;
801;SDS011;383;48.766;9.270;2023-02-01T05:59:26;6.35;;;3.00;;
801;SDS011;383;48.766;9.270;2023-02-01T06:01:53;7.00;;;3.97;;
801;SDS011;383;48.766;9.270;2023-02-01T06:04:20;4.50;;;3.28;;
801;SDS011;383;48.766;9.270;2023-02-01T06:06:48;6.82;;;3.20;;
801;SDS011;383;48.766;9.270;2023-02-01T06:09:16;10.13;;;3.42;;
801;SDS011;383;48.766;9.270;2023-02-01T06:11:42;5.18;;;2.95;;
801;SDS011;383;48.766;9.270;2023-02-01T06:14:09;5.95;;;2.92;;
801;SDS011;383;48.766;9.270;2023-02-01T06:16:36;4.72;;;2.90;;
801;SDS011;383;48.766;9.270;2023-02-01T06:19:02;6.38;;;3.45;;
801;SDS011;383;48.766;9.270;2023-02-01T06:21:29;3.65;;;3.10;;
801;SDS011;383;48.766;9.270;2023-02-01T06:23:57;8.00;;;3.92;;
801;SDS011;383;48.766;9.270;2023-02-01T06:26:24;7.68;;;3.17;;
801;SDS011;383;48.766;9.270;2023-02-01T06:28:53;3.13;;;2.88;;
801;SDS011;383;48.766;9.270;2023-02-01T06:31:21;2.97;;;2.60;;
801;SDS011;383;48.766;9.270;2023-02-01T06:33:48;3.05;;;2.65;;
801;SDS011;383;48.766;9.270;2023-02-01T06:36:15;6.78;;;3.80;;
801;SDS011;383;48.766;9.270;2023-02-01T06:38:43;4.18;;;2.78;;
801;SDS011;383;48.766;9.270;2023-02-01T06:41:11;6.65;;;2.90;;
801;SDS011;383;48.766;9.270;2023-02-01T06:43:38;6.05;;;3.17;;
801;SDS011;383;48.766;9.270;2023-02-01T06:46:06;2.50;;;2.30;;
801;SDS011;383;48.766;9.270;2023-02-01T06:48:35;6.70;;;3.40;;
801;SDS011;383;48.766;9.270;2023-02-01T06:51:02;4.90;;;3.17;;
801;SDS011;383;48.766;9.270;2023-02-01T06:53:29;5.68;;;2.70;;
801;SDS011;383;48.766;9.270;2023-02-01T06:55:56;5.55;;;3.20;;
801;SDS011;383;48.766;9.270;2023-02-01T06:58:29;7.70;;;3.58;;
801;SDS011;383;48.766;9.270;2023-02-01T07:00:56;7.25;;;2.90;;
801;SDS011;383;48.766;9.270;2023-02-01T07:03:23;2.97;;;2.33;;
801;SDS011;383;48.766;9.270;2023-02-01T07:05:56;4.38;;;3.03;;
801;SDS011;383;48.766;9.270;2023-02-01T07:08:24;4.28;;;2.70;;
801;SDS011;383;48.766;9.270;2023-02-01T07:10:51;13.18;;;3.72;;
801;SDS011;383;48.766;9.270;2023-02-01T07:13:18;11.15;;;3.80;;
801;SDS011;383;48.766;9.270;2023-02-01T07:15:46;6.65;;;3.90;;
801;SDS011;383;48.766;9.270;2023-02-01T07:18:12;8.63;;;4.32;;
801;SDS011;383;48.766;9.270;2023-02-01T07:20:40;5.15;;;3.00;;
801;SDS011;383;48.766;9.270;2023-02-01T07:23:07;6.45;;;3.28;;
801;SDS011;383;48.766;9.270;2023-02-01T07:25:35;5.40;;;3.38;;
801;SDS011;383;48.766;9.270;2023-02-01T07:28:02;9.18;;;3.45;;
801;SDS011;383;48.766;9.270;2023-02-01T07:30:29;5.72;;;2.60;;
801;SDS011;383;48.766;9.270;2023-02-01T07:32:57;4.13;;;3.00;;
801;SDS011;383;48.766;9.270;2023-02-01T07:35:26;6.60;;;3.20;;
801;SDS011;383;48.766;9.270;2023-02-01T07:37:53;6.45;;;3.50;;
801;SDS011;383;48.766;9.270;2023-02-01T07:40:20;9.52;;;5.07;;
801;SDS011;383;48.766;9.270;2023-02-01T07:42:53;7.80;;;4.03;;
801;SDS011;383;48.766;9.270;2023-02-01T07:45:20;4.72;;;3.53;;
801;SDS011;383;48.766;9.270;2023-02-01T07:47:47;6.28;;;2.85;;
801;SDS011;383;48.766;9.270;2023-02-01T07:50:16;6.53;;;3.45;;
801;SDS011;383;48.766;9.270;2023-02-01T07:52:43;9.20;;;3.58;;
801;SDS011;383;48.766;9.270;2023-02-01T07:55:10;8.13;;;3.60;;
801;SDS011;383;48.766;9.270;2023-02-01T07:57:37;6.07;;;3.33;;
801;SDS011;383;48.766;9.270;2023-02-01T08:00:04;5.30;;;3.65;;
801;SDS011;383;48.766;9.270;2023-02-01T08:02:49;4.70;;;3.25;;
801;SDS011;383;48.766;9.270;2023-02-01T08:05:17;3.65;;;3.10;;
801;SDS011;383;48.766;9.270;2023-02-01T08:07:48;8.02;;;3.28;;
801;SDS011;383;48.766;9.270;2023-02-01T08:10:15;6.35;;;2.95;;
801;SDS011;383;48.766;9.270;2023-02-01T08:12:42;10.80;;;4.65;;
801;SDS011;383;48.766;9.270;2023-02-01T08:15:12;4.13;;;2.88;;
801;SDS011;383;48.766;9.270;2023-02-01T08:17:40;5.70;;;3.17;;
801;SDS011;383;48.766;9.270;2023-02-01T08:20:07;7.15;;;3.50;;
801;SDS011;383;48.766;9.270;2023-02-01T08:22:36;7.38;;;3.72;;
801;SDS011;383;48.766;9.270;2023-02-01T08:25:03;7.57;;;3.05;;
801;SDS011;383;48.766;9.270;2023-02-01T08:27:32;5.70;;;3.30;;
801;SDS011;383;48.766;9.270;2023-02-01T08:29:59;17.55;;;3.00;;
801;SDS011;383;48.766;9.270;2023-02-01T08:32:26;3.60;;;2.78;;
801;SDS011;383;48.766;9.270;2023-02-01T08:34:52;6.13;;;3.25;;
801;SDS011;383;48.766;9.270;2023-02-01T08:37:19;10.02;;;3.15;;
801;SDS011;383;48.766;9.270;2023-02-01T08:39:48;6.00;;;3.30;;
801;SDS011;383;48.766;9.270;2023-02-01T08:42:15;7.43;;;3.45;;
801;SDS011;383;48.766;9.270;2023-02-01T08:45:00;9.93;;;4.35;;
801;SDS011;383;48.766;9.270;2023-02-01T08:47:27;5.13;;;3.65;;
801;SDS011;383;48.766;9.270;2023-02-01T08:49:54;6.18;;;3.33;;
801;SDS011;383;48.766;9.270;2023-02-01T08:52:21;6.75;;;3.92;;
801;SDS011;383;48.766;9.270;2023-02-01T08:54:49;9.65;;;3.50;;
801;SDS011;383;48.766;9.270;2023-02-01T08:57:16;7.43;;;3.28;;
801;SDS011;383;48.766;9.270;2023-02-01T08:59:43;5.63;;;2.58;;
801;SDS011;383;48.766;9.270;2023-02-01T09:02:11;5.30;;;3.13;;
801;SDS011;383;48.766;9.270;2023-02-01T09:04:38;8.18;;;5.50;;
801;SDS011;383;48.766;9.270;2023-02-01T09:07:05;5.50;;;2.95;;
801;SDS011;383;48.766;9.270;2023-02-01T09:09:32;9.20;;;4.32;;
801;SDS011;383;48.766;9.270;2023-02-01T09:12:01;9.30;;;4.15;;
801;SDS011;383;48.766;9.270;2023-02-01T09:14:28;10.07;;;4.32;;
801;SDS011;383;48.766;9.270;2023-02-01T09:16:55;13.75;;;6.18;;
801;SDS011;383;48.766;9.270;2023-02-01T09:19:22;13.88;;;4.20;;
801;SDS011;383;48.766;9.270;2023-02-01T09:21:49;22.50;;;7.72;;
801;SDS011;383;48.766;9.270;2023-02-01T09:24:16;12.75;;;5.80;;
801;SDS011;383;48.766;9.270;2023-02-01T09:26:43;12.02;;;4.80;;
801;SDS011;383;48.766;9.270;2023-02-01T09:29:12;7.32;;;5.07;;
801;SDS011;383;48.766;9.270;2023-02-01T09:31:39;13.02;;;5.03;;
801;SDS011;383;48.766;9.270;2023-02-01T09:34:06;19.73;;;8.50;;
801;SDS011;383;48.766;9.270;2023-02-01T09:36:33;19.42;;;8.32;;
801;SDS011;383;48.766;9.270;2023-02-01T09:39:00;17.00;;;9.13;;
801;SDS011;383;48.766;9.270;2023-02-01T09:41:32;20.55;;;11.25;;
801;SDS011;383;48.766;9.270;2023-02-01T09:44:05;31.00;;;16.30;;
801;SDS011;383;48.766;9.270;2023-02-01T09:46:40;11.93;;;4.45;;
801;SDS011;383;48.766;9.270;2023-02-01T09:49:09;7.30;;;4.78;;
801;SDS011;383;48.766;9.270;2023-02-01T09:51:40;9.88;;;3.72;;
801;SDS011;383;48.766;9.270;2023-02-01T09:54:11;15.43;;;7.10;;
801;SDS011;383;48.766;9.270;2023-02-01T09:56:42;11.85;;;6.25;;
801;SDS011;383;48.766;9.270;2023-02-01T09:59:15;9.20;;;5.47;;
801;SDS011;383;48.766;9.270;2023-02-01T10:01:50;15.05;;;6.75;;
801;SDS011;383;48.766;9.270;2023-02-01T10:04:17;8.50;;;4.32;;
801;SDS011;383;48.766;9.270;2023-02-01T10:06:48;14.48;;;4.50;;
801;SDS011;383;48.766;9.270;2023-02-01T10:09:28;3.90;;;3.30;;
801;SDS011;383;48.766;9.270;2023-02-01T10:12:12;7.47;;;2.92;;
801;SDS011;383;48.766;9.270;2023-02-01T10:14:55;13.73;;;3.75;;
801;SDS011;383;48.766;9.270;2023-02-01T10:17:33;19.85;;;4.75;;
801;SDS011;383;48.766;9.270;2023-02-01T10:20:10;9.32;;;5.65;;
801;SDS011;383;48.766;9.270;2023-02-01T10:22:44;9.07;;;4.88;;
801;SDS011;383;48.766;9.270;2023-02-01T10:25:14;16.25;;;3.20;;
801;SDS011;383;48.766;9.270;2023-02-01T10:27:47;6.75;;;2.55;;
801;SDS011;383;48.766;9.270;2023-02-01T10:30:18;8.80;;;3.22;;
801;SDS011;383;48.766;9.270;2023-02-01T10:32:48;15.43;;;4.28;;
801;SDS011;383;48.766;9.270;2023-02-01T10:35:18;10.88;;;3.15;;
801;SDS011;383;48.766;9.270;2023-02-01T10:37:50;17.73;;;4.03;;
801;SDS011;383;48.766;9.270;2023-02-01T10:40:19;15.57;;;3.42;;
801;SDS011;383;48.766;9.270;2023-02-01T10:42:48;7.72;;;3.65;;
801;SDS011;383;48.766;9.270;2023-02-01T10:45:17;8.07;;;3.30;;
801;SDS011;383;48.766;9.270;2023-02-01T10:47:46;19.23;;;3.35;;
801;SDS011;383;48.766;9.270;2023-02-01T10:50:17;9.95;;;3.10;;
801;SDS011;383;48.766;9.270;2023-02-01T10:52:54;8.95;;;3.42;;
801;SDS011;383;48.766;9.270;2023-02-01T10:55:29;13.20;;;3.45;;
801;SDS011;383;48.766;9.270;2023-02-01T10:58:00;9.18;;;3.17;;
801;SDS011;383;48.766;9.270;2023-02-01T11:00:34;7.68;;;3.33;;
801;SDS011;383;48.766;9.270;2023-02-01T11:03:20;12.43;;;3.50;;
801;SDS011;383;48.766;9.270;2023-02-01T11:05:54;13.07;;;3.20;;
801;SDS011;383;48.766;9.270;2023-02-01T11:08:22;10.05;;;3.38;;
801;SDS011;383;48.766;9.270;2023-02-01T11:10:56;14.20;;;4.18;;
801;SDS011;383;48.766;9.270;2023-02-01T11:13:27;7.88;;;2.78;;
801;SDS011;383;48.766;9.270;2023-02-01T11:15:56;12.48;;;3.63;;
801;SDS011;383;48.766;9.270;2023-02-01T11:18:27;11.43;;;4.03;;
801;SDS011;383;48.766;9.270;2023-02-01T11:20:55;10.93;;;3.08;;
801;SDS011;383;48.766;9.270;2023-02-01T11:23:23;26.60;;;3.28;;
801;SDS011;383;48.766;9.270;2023-02-01T11:25:52;21.15;;;5.18;;
801;SDS011;383;48.766;9.270;2023-02-01T11:28:20;10.35;;;4.88;;
801;SDS011;383;48.766;9.270;2023-02-01T11:30:53;26.20;;;2.70;;
801;SDS011;383;48.766;9.270;2023-02-01T11:33:24;13.68;;;4.35;;
801;SDS011;383;48.766;9.270;2023-02-01T11:35:55;11.63;;;3.00;;
801;SDS011;383;48.766;9.270;2023-02-01T11:38:26;11.43;;;3.20;;
801;SDS011;383;48.766;9.270;2023-02-01T11:40:54;8.35;;;3.40;;
801;SDS011;383;48.766;9.270;2023-02-01T11:43:22;25.83;;;5.68;;
801;SDS011;383;48.766;9.270;2023-02-01T11:45:54;13.32;;;5.97;;
801;SDS011;383;48.766;9.270;2023-02-01T11:48:24;20.95;;;4.68;;
801;SDS011;383;48.766;9.270;2023-02-01T11:50:54;20.98;;;5.90;;
801;SDS011;383;48.766;9.270;2023-02-01T11:53:34;9.10;;;3.92;;
801;SDS011;383;48.766;9.270;2023-02-01T11:56:11;9.93;;;3.80;;
801;SDS011;383;48.766;9.270;2023-02-01T11:58:54;13.32;;;5.15;;
801;SDS011;383;48.766;9.270;2023-02-01T12:04:37;18.20;;;5.00;;
801;SDS011;383;48.766;9.270;2023-02-01T12:07:19;21.45;;;7.28;;
801;SDS011;383;48.766;9.270;2023-02-01T12:09:53;12.45;;;4.70;;
801;SDS011;383;48.766;9.270;2023-02-01T12:12:39;8.40;;;2.80;;
801;SDS011;383;48.766;9.270;2023-02-01T12:15:27;13.98;;;3.10;;
801;SDS011;383;48.766;9.270;2023-02-01T12:18:17;9.52;;;4.53;;
801;SDS011;383;48.766;9.270;2023-02-01T12:21:14;12.23;;;4.10;;
801;SDS011;383;48.766;9.270;2023-02-01T12:23:58;13.45;;;4.45;;
801;SDS011;383;48.766;9.270;2023-02-01T12:29:12;15.07;;;3.25;;
801;SDS011;383;48.766;9.270;2023-02-01T12:31:51;10.13;;;3.30;;
801;SDS011;383;48.766;9.270;2023-02-01T12:34:51;20.88;;;3.65;;
801;SDS011;383;48.766;9.270;2023-02-01T12:37:32;10.02;;;3.10;;
801;SDS011;383;48.766;9.270;2023-02-01T12:40:16;7.95;;;2.97;;
801;SDS011;383;48.766;9.270;2023-02-01T12:42:53;10.70;;;4.45;;
801;SDS011;383;48.766;9.270;2023-02-01T12:45:26;12.00;;;2.95;;
801;SDS011;383;48.766;9.270;2023-02-01T12:47:59;18.10;;;4.78;;
801;SDS011;383;48.766;9.270;2023-02-01T12:50:42;24.25;;;7.13;;
801;SDS011;383;48.766;9.270;2023-02-01T12:53:14;15.02;;;5.22;;
801;SDS011;383;48.766;9.270;2023-02-01T12:55:47;11.88;;;2.83;;
801;SDS011;383;48.766;9.270;2023-02-01T12:58:19;14.38;;;4.28;;
801;SDS011;383;48.766;9.270;2023-02-01T13:00:52;14.27;;;4.30;;
801;SDS011;383;48.766;9.270;2023-02-01T13:03:26;11.52;;;3.35;;
801;SDS011;383;48.766;9.270;2023-02-01T13:06:00;18.50;;;5.22;;
801;SDS011;383;48.766;9.270;2023-02-01T13:08:36;17.38;;;3.95;;
801;SDS011;383;48.766;9.270;2023-02-01T13:11:10;20.42;;;3.55;;
801;SDS011;383;48.766;9.270;2023-02-01T13:13:42;13.95;;;3.63;;
801;SDS011;383;48.766;9.270;2023-02-01T13:16:14;16.55;;;5.43;;
801;SDS011;383;48.766;9.270;2023-02-01T13:18:48;22.00;;;3.95;;
801;SDS011;383;48.766;9.270;2023-02-01T13:21:17;18.00;;;3.88;;
801;SDS011;383;48.766;9.270;2023-02-01T13:23:47;10.65;;;4.05;;
801;SDS011;383;48.766;9.270;2023-02-01T13:26:16;13.98;;;3.40;;
801;SDS011;383;48.766;9.270;2023-02-01T13:28:44;27.95;;;5.43;;
801;SDS011;383;48.766;9.270;2023-02-01T13:31:23;12.02;;;3.67;;
801;SDS011;383;48.766;9.270;2023-02-01T13:37:14;10.52;;;4.05;;
801;SDS011;383;48.766;9.270;2023-02-01T13:39:55;16.20;;;4.13;;
801;SDS011;383;48.766;9.270;2023-02-01T13:42:47;24.63;;;3.97;;
801;SDS011;383;48.766;9.270;2023-02-01T13:45:16;13.75;;;3.15;;
801;SDS011;383;48.766;9.270;2023-02-01T13:47:47;11.45;;;2.80;;
801;SDS011;383;48.766;9.270;2023-02-01T13:50:20;6.72;;;3.17;;
801;SDS011;383;48.766;9.270;2023-02-01T13:52:51;15.02;;;4.50;;
801;SDS011;383;48.766;9.270;2023-02-01T13:55:28;20.00;;;3.95;;
801;SDS011;383;48.766;9.270;2023-02-01T13:58:04;14.82;;;3.45;;
801;SDS011;383;48.766;9.270;2023-02-01T14:00:43;12.70;;;4.32;;
801;SDS011;383;48.766;9.270;2023-02-01T14:03:12;11.18;;;2.80;;
801;SDS011;383;48.766;9.270;2023-02-01T14:05:55;9.70;;;3.75;;
801;SDS011;383;48.766;9.270;2023-02-01T14:08:40;10.75;;;2.72;;
801;SDS011;383;48.766;9.270;2023-02-01T14:11:37;10.38;;;2.97;;
801;SDS011;383;48.766;9.270;2023-02-01T14:23:15;14.00;;;3.15;;
801;SDS011;383;48.766;9.270;2023-02-01T14:26:08;9.32;;;3.10;;
801;SDS011;383;48.766;9.270;2023-02-01T14:28:45;20.73;;;3.40;;
801;SDS011;383;48.766;9.270;2023-02-01T14:31:33;6.93;;;3.58;;
801;SDS011;383;48.766;9.270;2023-02-01T14:34:14;11.10;;;3.95;;
801;SDS011;383;48.766;9.270;2023-02-01T14:36:44;10.88;;;3.35;;
801;SDS011;383;48.766;9.270;2023-02-01T14:39:30;10.13;;;3.05;;
801;SDS011;383;48.766;9.270;2023-02-01T14:42:01;8.93;;;3.53;;
801;SDS011;383;48.766;9.270;2023-02-01T14:44:34;16.20;;;4.20;;
801;SDS011;383;48.766;9.270;2023-02-01T14:47:06;19.48;;;3.55;;
801;SDS011;383;48.766;9.270;2023-02-01T14:49:54;7.50;;;2.50;;
801;SDS011;383;48.766;9.270;2023-02-01T14:52:28;9.52;;;4.75;;
801;SDS011;383;48.766;9.270;2023-02-01T14:55:01;19.10;;;3.25;;
801;SDS011;383;48.766;9.270;2023-02-01T14:57:33;10.05;;;4.38;;
801;SDS011;383;48.766;9.270;2023-02-01T15:00:11;12.45;;;3.20;;
801;SDS011;383;48.766;9.270;2023-02-01T15:02:43;12.07;;;3.33;;
801;SDS011;383;48.766;9.270;2023-02-01T15:05:25;6.95;;;2.80;;
801;SDS011;383;48.766;9.270;2023-02-01T15:07:56;14.07;;;2.75;;
801;SDS011;383;48.766;9.270;2023-02-01T15:10:42;11.07;;;3.13;;
801;SDS011;383;48.766;9.270;2023-02-01T15:13:21;8.50;;;2.28;;
801;SDS011;383;48.766;9.270;2023-02-01T15:16:02;16.17;;;2.78;;
801;SDS011;383;48.766;9.270;2023-02-01T15:18:30;10.95;;;3.13;;
801;SDS011;383;48.766;9.270;2023-02-01T15:20:57;12.57;;;2.58;;
801;SDS011;383;48.766;9.270;2023-02-01T15:23:25;7.75;;;2.60;;
801;SDS011;383;48.766;9.270;2023-02-01T15:25:54;19.35;;;3.47;;
801;SDS011;383;48.766;9.270;2023-02-01T15:28:21;9.43;;;3.22;;
801;SDS011;383;48.766;9.270;2023-02-01T15:30:52;13.05;;;3.78;;
801;SDS011;383;48.766;9.270;2023-02-01T15:33:23;9.32;;;3.80;;
801;SDS011;383;48.766;9.270;2023-02-01T15:35:51;18.98;;;3.47;;
801;SDS011;383;48.766;9.270;2023-02-01T15:41:07;11.05;;;4.28;;
801;SDS011;383;48.766;9.270;2023-02-01T15:43:39;10.60;;;3.33;;
801;SDS011;383;48.766;9.270;2023-02-01T15:46:09;15.55;;;2.80;;
801;SDS011;383;48.766;9.270;2023-02-01T15:48:38;8.43;;;3.47;;
801;SDS011;383;48.766;9.270;2023-02-01T15:51:16;10.88;;;2.72;;
801;SDS011;383;48.766;9.270;2023-02-01T15:53:46;9.43;;;2.38;;
801;SDS011;383;48.766;9.270;2023-02-01T15:56:17;12.75;;;2.80;;
801;SDS011;383;48.766;9.270;2023-02-01T15:58:50;9.18;;;3.35;;
801;SDS011;383;48.766;9.270;2023-02-01T16:01:19;17.13;;;3.50;;
801;SDS011;383;48.766;9.270;2023-02-01T16:03:46;9.88;;;3.08;;
801;SDS011;383;48.766;9.270;2023-02-01T16:06:26;12.68;;;4.15;;
801;SDS011;383;48.766;9.270;2023-02-01T16:08:55;18.73;;;3.80;;
801;SDS011;383;48.766;9.270;2023-02-01T16:11:28;11.82;;;3.97;;
801;SDS011;383;48.766;9.270;2023-02-01T16:13:57;4.95;;;3.17;;
801;SDS011;383;48.766;9.270;2023-02-01T16:16:24;24.00;;;7.78;;
801;SDS011;383;48.766;9.270;2023-02-01T16:18:51;15.13;;;4.18;;
801;SDS011;383;48.766;9.270;2023-02-01T16:21:18;13.73;;;3.88;;
801;SDS011;383;48.766;9.270;2023-02-01T16:23:47;13.43;;;3.58;;
801;SDS011;383;48.766;9.270;2023-02-01T16:26:15;9.25;;;3.45;;
801;SDS011;383;48.766;9.270;2023-02-01T16:28:43;16.95;;;3.97;;
801;SDS011;383;48.766;9.270;2023-02-01T16:31:11;11.30;;;3.45;;
801;SDS011;383;48.766;9.270;2023-02-01T16:33:43;13.02;;;3.17;;
801;SDS011;383;48.766;9.270;2023-02-01T16:36:11;15.55;;;3.85;;